Time;durP1;ratioP1;P1;durP2;ratioP2;P2;SDS_P1;SDS_P2;PMS_P1;PMS_P2;Temp;Humidity;BMP_temperature;BMP_pressure;BME280_temperature;BME280_humidity;BME280_pressure;Samples;Min_cycle;Max_cycle;Signal;HPM_P1;HPM_P2
2021/06/03 00:00:01;;;;;;;3.35;2.40;;;16.40;99.90;;;;;;5004951;28;20250;-69
2021/06/03 00:02:26;;;;;;;2.97;2.70;;;16.30;99.90;;;;;;5004376;28;20179;-69
2021/06/03 00:04:53;;;;;;;2.58;2.35;;;16.20;99.90;;;;;;5005047;28;20176;-70
2021/06/03 00:07:21;;;;;;;3.25;2.40;;;16.10;99.90;;;;;;5005209;28;20217;-70
2021/06/03 00:09:46;;;;;;;2.83;2.63;;;15.90;99.90;;;;;;5004731;28;20199;-69
2021/06/03 00:12:12;;;;;;;2.60;2.40;;;15.70;99.90;;;;;;5002820;28;20198;-68
2021/06/03 00:14:38;;;;;;;3.47;2.67;;;15.70;99.90;;;;;;5005631;28;20192;-68
2021/06/03 00:17:05;;;;;;;2.83;2.58;;;15.50;99.90;;;;;;5005345;28;20776;-69
2021/06/03 00:19:32;;;;;;;3.67;3.00;;;15.50;99.90;;;;;;5003631;28;20211;-69
2021/06/03 00:21:57;;;;;;;2.88;2.60;;;15.30;99.90;;;;;;5004139;28;20306;-69
2021/06/03 00:24:24;;;;;;;2.90;2.65;;;15.20;99.90;;;;;;5005132;28;20281;-68
2021/06/03 00:26:49;;;;;;;4.45;2.88;;;15.10;99.90;;;;;;5004875;28;20194;-70
2021/06/03 00:29:16;;;;;;;3.00;2.55;;;15.10;99.90;;;;;;5019942;28;20211;-68
2021/06/03 00:31:43;;;;;;;2.92;2.50;;;15.00;99.90;;;;;;5004323;28;20741;-68
2021/06/03 00:34:08;;;;;;;3.17;2.25;;;14.90;99.90;;;;;;5004588;28;20597;-69
2021/06/03 00:36:34;;;;;;;2.70;2.50;;;14.80;99.90;;;;;;5003585;28;20374;-69
2021/06/03 00:39:00;;;;;;;3.10;2.80;;;14.70;99.90;;;;;;5004629;28;20290;-70
2021/06/03 00:41:25;;;;;;;7.55;2.70;;;14.80;99.90;;;;;;5004257;28;20233;-70
2021/06/03 00:43:51;;;;;;;2.92;2.63;;;14.80;99.90;;;;;;5005001;28;20180;-69
2021/06/03 00:46:17;;;;;;;3.58;3.15;;;14.90;99.90;;;;;;5004623;28;20202;-69
2021/06/03 00:48:43;;;;;;;3.15;2.85;;;15.00;99.90;;;;;;5019811;28;20200;-68
2021/06/03 00:51:10;;;;;;;3.88;3.10;;;15.10;99.90;;;;;;5003368;28;20188;-69
2021/06/03 00:53:38;;;;;;;3.20;2.80;;;15.00;99.90;;;;;;5004806;28;20190;-69
2021/06/03 00:56:05;;;;;;;4.30;2.50;;;15.10;99.90;;;;;;5004422;28;20737;-69
2021/06/03 00:58:34;;;;;;;3.05;2.75;;;15.20;99.90;;;;;;5004232;28;20212;-68
2021/06/03 01:01:00;;;;;;;2.88;2.63;;;15.20;99.90;;;;;;5003249;28;20210;-69
2021/06/03 01:03:28;;;;;;;4.85;2.85;;;15.20;99.90;;;;;;5001643;28;20195;-69
2021/06/03 01:06:00;;;;;;;3.17;2.80;;;15.10;99.90;;;;;;5003189;28;20190;-70
2021/06/03 01:08:35;;;;;;;2.40;2.20;;;15.00;99.90;;;;;;5003092;28;20203;-70
2021/06/03 01:11:27;;;;;;;3.45;3.10;;;14.90;99.90;;;;;;5001895;28;20183;-70
2021/06/03 01:14:09;;;;;;;3.55;3.17;;;14.80;99.90;;;;;;5003337;28;20192;-68
2021/06/03 01:16:35;;;;;;;2.53;2.33;;;14.70;99.90;;;;;;5003789;28;20226;-70
2021/06/03 01:19:07;;;;;;;3.38;3.08;;;14.70;99.90;;;;;;5004258;28;20214;-68
2021/06/03 01:21:46;;;;;;;3.22;2.92;;;14.50;99.90;;;;;;5003232;28;20198;-68
2021/06/03 01:24:21;;;;;;;3.05;2.72;;;14.50;99.90;;;;;;5004528;28;20736;-68
2021/06/03 01:26:47;;;;;;;3.00;2.70;;;14.30;99.90;;;;;;5003036;28;20172;-69
2021/06/03 01:29:17;;;;;;;2.63;2.40;;;14.20;99.90;;;;;;5004204;28;20191;-68
2021/06/03 01:31:45;;;;;;;3.08;2.60;;;14.10;99.90;;;;;;5003337;28;20622;-69
2021/06/03 01:34:12;;;;;;;2.95;2.70;;;14.00;99.90;;;;;;5003466;28;20200;-69
2021/06/03 01:36:38;;;;;;;3.40;3.10;;;13.90;99.90;;;;;;5003351;28;20197;-68
2021/06/03 01:39:07;;;;;;;2.90;2.63;;;13.90;99.90;;;;;;5003354;28;20682;-68
2021/06/03 01:41:33;;;;;;;3.65;2.60;;;14.10;99.90;;;;;;5003338;28;20914;-70
2021/06/03 01:44:00;;;;;;;3.33;2.85;;;14.10;99.90;;;;;;5003544;28;20175;-69
2021/06/03 01:46:26;;;;;;;2.97;2.47;;;14.20;99.90;;;;;;5003549;28;20199;-69
2021/06/03 01:48:56;;;;;;;4.32;3.05;;;14.30;99.90;;;;;;5003616;28;20542;-69
2021/06/03 01:51:22;;;;;;;3.60;2.58;;;14.50;99.90;;;;;;5002598;28;20175;-69
2021/06/03 01:53:48;;;;;;;3.15;2.70;;;14.50;99.90;;;;;;5003936;28;20259;-70
2021/06/03 01:56:16;;;;;;;4.30;2.55;;;14.60;99.90;;;;;;5003693;28;20188;-69
2021/06/03 01:58:42;;;;;;;3.00;2.70;;;14.70;99.90;;;;;;5003219;28;20195;-69
2021/06/03 02:01:09;;;;;;;2.78;2.45;;;14.80;99.90;;;;;;5001940;28;20679;-67
2021/06/03 02:03:36;;;;;;;3.00;2.33;;;14.90;99.90;;;;;;5003827;28;20187;-69
2021/06/03 02:06:03;;;;;;;2.58;2.38;;;14.80;99.90;;;;;;5003221;28;20615;-69
2021/06/03 02:08:29;;;;;;;3.03;2.70;;;14.90;99.90;;;;;;5003863;28;20219;-69
2021/06/03 02:10:56;;;;;;;3.35;2.78;;;14.80;99.90;;;;;;5002651;28;20511;-69
2021/06/03 02:13:43;;;;;;;2.90;2.60;;;14.90;99.90;;;;;;5000644;28;20275;-70
2021/06/03 02:16:20;;;;;;;2.95;2.63;;;15.00;99.90;;;;;;5002628;28;20184;-69
2021/06/03 02:18:50;;;;;;;2.60;2.38;;;14.90;99.90;;;;;;5003422;28;20258;-68
2021/06/03 02:21:18;;;;;;;3.10;2.80;;;14.90;99.90;;;;;;5002442;28;20242;-69
2021/06/03 02:23:46;;;;;;;3.85;2.50;;;14.90;99.90;;;;;;5018672;28;20230;-68
2021/06/03 02:26:13;;;;;;;2.60;2.40;;;14.80;99.90;;;;;;5003569;28;20266;-68
2021/06/03 02:28:40;;;;;;;3.38;3.03;;;14.80;99.90;;;;;;5002715;28;20258;-69
2021/06/03 02:31:06;;;;;;;3.25;2.65;;;14.70;99.90;;;;;;5002434;28;20299;-67
2021/06/03 02:33:32;;;;;;;2.80;2.60;;;14.60;99.90;;;;;;5003611;28;20837;-69
2021/06/03 02:35:58;;;;;;;3.50;3.10;;;14.50;99.90;;;;;;5003121;28;20188;-69
2021/06/03 02:38:30;;;;;;;4.90;3.38;;;14.40;99.90;;;;;;5003348;28;20616;-68
2021/06/03 02:41:02;;;;;;;3.13;2.83;;;14.40;99.90;;;;;;5002435;28;20203;-69
2021/06/03 02:43:28;;;;;;;3.08;2.47;;;14.50;99.90;;;;;;5002642;28;20168;-69
2021/06/03 02:45:55;;;;;;;3.08;2.78;;;14.40;99.90;;;;;;5002544;28;20196;-71
2021/06/03 02:48:21;;;;;;;3.47;2.90;;;14.30;99.90;;;;;;5001790;28;20689;-69
2021/06/03 02:50:47;;;;;;;3.78;2.85;;;14.30;99.90;;;;;;5002241;28;20274;-68
2021/06/03 02:53:13;;;;;;;3.38;3.08;;;14.30;99.90;;;;;;5004527;28;20278;-68
2021/06/03 02:55:39;;;;;;;3.95;3.17;;;14.20;99.90;;;;;;5003992;28;20681;-69
2021/06/03 02:58:06;;;;;;;4.63;3.22;;;14.10;99.90;;;;;;5004037;28;20190;-70
2021/06/03 03:00:33;;;;;;;3.35;2.72;;;14.00;99.90;;;;;;5004064;28;20226;-69
2021/06/03 03:03:00;;;;;;;3.15;2.75;;;14.00;99.90;;;;;;5004553;28;20222;-69
2021/06/03 03:05:26;;;;;;;3.03;2.63;;;13.90;99.90;;;;;;5004665;28;20179;-69
2021/06/03 03:07:53;;;;;;;3.25;2.95;;;13.80;99.90;;;;;;5004867;28;20184;-70
2021/06/03 03:10:25;;;;;;;6.47;3.40;;;13.70;99.90;;;;;;5005008;28;20187;-68
2021/06/03 03:12:51;;;;;;;3.78;2.95;;;13.80;99.90;;;;;;5003606;28;20281;-68
2021/06/03 03:15:18;;;;;;;3.95;3.28;;;13.70;99.90;;;;;;5003486;28;20224;-68
2021/06/03 03:17:45;;;;;;;3.25;2.95;;;13.70;99.90;;;;;;5006554;28;20194;-70
2021/06/03 03:20:12;;;;;;;3.40;3.08;;;13.70;99.90;;;;;;5006257;28;20562;-68
2021/06/03 03:22:40;;;;;;;3.13;2.83;;;13.60;99.90;;;;;;5005845;28;20198;-68
2021/06/03 03:25:07;;;;;;;2.92;2.63;;;13.60;99.90;;;;;;5005916;28;20710;-69
2021/06/03 03:27:34;;;;;;;2.80;2.60;;;13.70;99.90;;;;;;5004881;28;20190;-68
2021/06/03 03:29:59;;;;;;;4.28;3.55;;;13.70;99.90;;;;;;5006068;28;20250;-70
2021/06/03 03:32:25;;;;;;;3.70;3.40;;;13.60;99.90;;;;;;5005066;28;20214;-69
2021/06/03 03:34:51;;;;;;;3.20;2.90;;;13.70;99.90;;;;;;5006490;28;20194;-70
2021/06/03 03:37:17;;;;;;;3.47;3.05;;;13.80;99.90;;;;;;5020330;28;20184;-68
2021/06/03 03:39:43;;;;;;;4.00;3.15;;;13.80;99.90;;;;;;5005246;28;20208;-69
2021/06/03 03:42:08;;;;;;;3.40;3.10;;;13.90;99.90;;;;;;5004756;28;20180;-69
2021/06/03 03:44:34;;;;;;;3.90;2.85;;;13.90;99.90;;;;;;5005540;28;20266;-70
2021/06/03 03:47:00;;;;;;;3.78;3.47;;;13.90;99.90;;;;;;5005478;28;20274;-69
2021/06/03 03:49:26;;;;;;;3.30;3.00;;;13.90;99.90;;;;;;5005549;28;20232;-70
2021/06/03 03:51:52;;;;;;;3.65;3.35;;;13.80;99.90;;;;;;5005155;28;20730;-68
2021/06/03 03:54:18;;;;;;;3.70;3.28;;;13.90;99.90;;;;;;5005512;28;20183;-68
2021/06/03 03:56:44;;;;;;;3.78;3.38;;;13.90;99.90;;;;;;5003756;28;20230;-68
2021/06/03 03:59:10;;;;;;;4.05;3.65;;;14.10;99.90;;;;;;5005229;28;20199;-69
2021/06/03 04:01:35;;;;;;;2.92;2.72;;;14.20;99.90;;;;;;5005082;28;20579;-69
2021/06/03 04:04:01;;;;;;;3.38;3.08;;;14.30;99.90;;;;;;5006051;28;20187;-69
2021/06/03 04:06:27;;;;;;;3.20;2.90;;;14.40;99.90;;;;;;5005186;28;20184;-69
2021/06/03 04:08:52;;;;;;;3.10;2.80;;;14.50;99.90;;;;;;5005879;28;20199;-69
2021/06/03 04:11:19;;;;;;;4.53;4.10;;;14.50;99.90;;;;;;5004324;28;20282;-69
2021/06/03 04:13:46;;;;;;;4.28;3.40;;;14.60;99.90;;;;;;5005363;28;20179;-69
2021/06/03 04:16:12;;;;;;;4.07;3.60;;;14.70;99.90;;;;;;5004841;28;20412;-69
2021/06/03 04:18:38;;;;;;;3.97;3.47;;;14.70;99.90;;;;;;5005229;28;20663;-70
2021/06/03 04:21:04;;;;;;;4.38;3.38;;;14.90;99.90;;;;;;5004314;28;20223;-68
2021/06/03 04:23:29;;;;;;;3.88;3.35;;;14.90;99.90;;;;;;5005620;28;20188;-70
2021/06/03 04:25:55;;;;;;;5.05;3.28;;;15.00;99.90;;;;;;5004711;28;20188;-69
2021/06/03 04:28:21;;;;;;;3.50;3.20;;;15.20;99.90;;;;;;5004073;28;20726;-68
2021/06/03 04:30:46;;;;;;;6.13;3.08;;;15.50;99.90;;;;;;5004177;28;20241;-68
2021/06/03 04:33:15;;;;;;;3.15;2.85;;;16.00;99.90;;;;;;5004377;28;20186;-69
2021/06/03 04:35:41;;;;;;;2.95;2.65;;;16.70;99.90;;;;;;5004961;28;20616;-69
2021/06/03 04:38:06;;;;;;;4.03;3.10;;;16.90;99.90;;;;;;5004557;28;20222;-68
2021/06/03 04:40:33;;;;;;;4.20;3.08;;;16.70;99.90;;;;;;5004334;28;20741;-69
2021/06/03 04:42:59;;;;;;;3.33;3.03;;;16.40;99.90;;;;;;5004107;28;20175;-69
2021/06/03 04:45:26;;;;;;;4.00;3.47;;;16.20;99.90;;;;;;5004487;28;20661;-69
2021/06/03 04:47:51;;;;;;;4.00;3.20;;;16.10;99.90;;;;;;5019784;28;20591;-71
2021/06/03 04:50:19;;;;;;;3.47;3.17;;;16.00;99.90;;;;;;5004712;28;20191;-69
2021/06/03 04:52:45;;;;;;;3.60;3.30;;;15.90;99.90;;;;;;5003218;28;20229;-68
2021/06/03 04:55:16;;;;;;;3.10;2.80;;;16.00;99.90;;;;;;5004812;28;20207;-68
2021/06/03 04:57:43;;;;;;;4.13;3.10;;;16.10;99.90;;;;;;5003181;28;20183;-69
2021/06/03 05:00:22;;;;;;;3.97;3.42;;;16.20;99.90;;;;;;5003942;28;20750;-69
2021/06/03 05:02:48;;;;;;;3.38;3.05;;;16.70;99.90;;;;;;5003429;28;20184;-68
2021/06/03 05:05:14;;;;;;;3.53;3.15;;;17.50;99.90;;;;;;5004131;28;20651;-68
2021/06/03 05:07:41;;;;;;;4.13;3.17;;;17.90;99.90;;;;;;5003958;28;20194;-68
2021/06/03 05:10:08;;;;;;;3.15;2.85;;;17.90;99.90;;;;;;5004016;28;20203;-69
2021/06/03 05:12:34;;;;;;;3.83;2.85;;;18.00;99.90;;;;;;5015588;28;20655;-70
2021/06/03 05:15:00;;;;;;;3.95;3.35;;;18.30;99.90;;;;;;5003336;28;20192;-70
2021/06/03 05:17:26;;;;;;;3.30;3.00;;;18.50;99.90;;;;;;4995331;28;20310;-70
2021/06/03 05:19:51;;;;;;;4.30;3.17;;;19.10;99.90;;;;;;5002663;28;20279;-70
2021/06/03 05:22:17;;;;;;;3.28;2.83;;;19.90;99.90;;;;;;5002822;28;20180;-70
2021/06/03 05:24:43;;;;;;;3.35;2.90;;;20.80;99.90;;;;;;5003676;28;20179;-69
2021/06/03 05:27:08;;;;;;;3.00;2.70;;;21.60;99.90;;;;;;5002504;28;20175;-69
2021/06/03 05:29:35;;;;;;;3.15;2.83;;;21.80;99.90;;;;;;5003058;28;20238;-70
2021/06/03 05:32:01;;;;;;;3.53;3.22;;;22.30;99.90;;;;;;5001468;28;20183;-66
2021/06/03 05:34:27;;;;;;;3.38;2.30;;;22.50;99.90;;;;;;5002613;28;20322;-67
2021/06/03 05:36:53;;;;;;;3.33;3.03;;;22.70;99.90;;;;;;5003398;28;20191;-67
2021/06/03 05:39:19;;;;;;;4.00;2.95;;;22.70;99.90;;;;;;4999951;28;20210;-66
2021/06/03 05:41:45;;;;;;;3.45;3.15;;;23.00;99.90;;;;;;5001032;28;20183;-69
2021/06/03 05:44:13;;;;;;;3.47;3.15;;;23.10;99.90;;;;;;5001630;28;20195;-71
2021/06/03 05:46:40;;;;;;;2.90;2.60;;;22.90;99.90;;;;;;5002930;28;20203;-70
2021/06/03 05:49:07;;;;;;;3.75;3.03;;;23.10;99.90;;;;;;5003253;28;20195;-70
2021/06/03 05:51:33;;;;;;;4.10;3.03;;;22.70;99.90;;;;;;5002643;28;20278;-70
2021/06/03 05:53:59;;;;;;;3.83;3.33;;;22.70;99.90;;;;;;5002839;28;20274;-69
2021/06/03 05:56:25;;;;;;;2.72;2.53;;;23.20;99.90;;;;;;5000252;28;20187;-69
2021/06/03 05:58:52;;;;;;;4.20;3.10;;;23.50;99.90;;;;;;5001548;28;20207;-71
2021/06/03 06:01:19;;;;;;;3.42;2.97;;;23.40;99.90;;;;;;5001033;28;20203;-70
2021/06/03 06:04:11;;;;;;;5.20;3.30;;;23.80;99.90;;;;;;5003189;28;20180;-71
2021/06/03 06:06:31;;;;;;;3.30;3.00;;;24.20;99.90;;;;;;5002208;28;20191;-70
2021/06/03 06:09:04;;;;;;;3.30;3.00;;;24.00;99.90;;;;;;5002958;28;20230;-68
2021/06/03 06:11:33;;;;;;;3.28;2.97;;;24.00;99.90;;;;;;5001376;28;20626;-71
2021/06/03 06:14:00;;;;;;;3.63;3.33;;;24.20;99.90;;;;;;5003046;28;20271;-71
2021/06/03 06:16:26;;;;;;;3.25;2.95;;;24.20;99.90;;;;;;5003256;28;20542;-71
2021/06/03 06:18:52;;;;;;;3.90;3.38;;;24.50;99.90;;;;;;5003614;28;20231;-70
2021/06/03 06:21:20;;;;;;;3.47;3.17;;;24.20;99.90;;;;;;5002337;28;20246;-69
2021/06/03 06:23:47;;;;;;;3.75;3.45;;;23.80;99.90;;;;;;5018053;28;20609;-70
2021/06/03 06:26:14;;;;;;;4.43;2.92;;;23.90;99.90;;;;;;5003793;28;20326;-69
2021/06/03 06:28:40;;;;;;;3.95;3.55;;;23.60;99.90;;;;;;5004847;28;20645;-69
2021/06/03 06:31:06;;;;;;;3.92;3.45;;;23.80;99.90;;;;;;5006794;28;20258;-69
2021/06/03 06:33:34;;;;;;;3.53;3.22;;;23.80;99.90;;;;;;5008137;28;20191;-69
2021/06/03 06:36:00;;;;;;;3.20;2.92;;;23.60;99.90;;;;;;5007975;28;20679;-70
2021/06/03 06:38:26;;;;;;;2.83;2.63;;;23.40;99.90;;;;;;5007410;28;20203;-68
2021/06/03 06:40:53;;;;;;;3.13;2.83;;;23.10;99.90;;;;;;5006148;28;20211;-68
2021/06/03 06:43:19;;;;;;;3.45;3.03;;;22.60;99.90;;;;;;5007189;28;20187;-69
2021/06/03 06:45:46;;;;;;;4.05;3.20;;;22.30;99.90;;;;;;5006812;28;20722;-69
2021/06/03 06:48:15;;;;;;;3.40;3.00;;;22.40;99.90;;;;;;5006804;28;20196;-69
2021/06/03 06:50:41;;;;;;;3.35;3.03;;;22.10;99.90;;;;;;5006810;28;20546;-70
2021/06/03 06:53:09;;;;;;;4.50;2.92;;;22.00;99.90;;;;;;5006878;28;20191;-69
2021/06/03 06:55:35;;;;;;;3.13;2.80;;;21.80;99.90;;;;;;5007603;28;20184;-69
2021/06/03 06:58:00;;;;;;;3.90;3.35;;;21.90;99.90;;;;;;5006215;28;20658;-69
2021/06/03 07:00:28;;;;;;;4.50;3.00;;;21.90;99.90;;;;;;5006430;28;20207;-69
2021/06/03 07:02:54;;;;;;;4.78;2.75;;;22.30;99.90;;;;;;5005370;28;20176;-68
2021/06/03 07:05:21;;;;;;;3.50;2.80;;;22.50;99.90;;;;;;5007095;28;20183;-69
2021/06/03 07:07:47;;;;;;;3.28;2.97;;;22.50;99.90;;;;;;5006093;28;20198;-70
2021/06/03 07:10:13;;;;;;;3.08;2.72;;;22.60;99.90;;;;;;5006755;28;20318;-69
2021/06/03 07:12:40;;;;;;;2.55;2.30;;;22.80;99.90;;;;;;5005768;28;20253;-69
2021/06/03 07:15:09;;;;;;;2.97;2.47;;;22.60;99.90;;;;;;5006403;28;20215;-68
2021/06/03 07:17:35;;;;;;;3.15;2.92;;;22.70;99.90;;;;;;5005459;28;21057;-68
2021/06/03 07:20:02;;;;;;;2.72;2.53;;;22.60;99.90;;;;;;5006227;28;20257;-69
2021/06/03 07:22:27;;;;;;;3.88;3.47;;;22.40;99.90;;;;;;5004898;28;20266;-68
2021/06/03 07:24:53;;;;;;;2.88;2.47;;;22.30;99.90;;;;;;5005169;28;20259;-68
2021/06/03 07:27:18;;;;;;;3.13;2.72;;;22.30;99.90;;;;;;5005147;28;20270;-69
2021/06/03 07:29:44;;;;;;;3.00;2.70;;;22.20;99.90;;;;;;5005769;28;20241;-68
2021/06/03 07:32:10;;;;;;;2.65;2.40;;;22.20;99.90;;;;;;5005456;28;20630;-67
2021/06/03 07:34:36;;;;;;;3.17;2.88;;;22.40;99.90;;;;;;5005126;28;20605;-68
2021/06/03 07:37:02;;;;;;;3.60;2.65;;;22.60;99.90;;;;;;5005784;28;20175;-69
2021/06/03 07:39:28;;;;;;;4.57;2.80;;;22.80;99.90;;;;;;5005651;28;20200;-68
2021/06/03 07:41:54;;;;;;;2.47;2.28;;;23.10;99.90;;;;;;5005302;28;20176;-68
2021/06/03 07:44:20;;;;;;;4.43;2.45;;;23.30;99.90;;;;;;5005773;28;20175;-68
2021/06/03 07:46:46;;;;;;;3.20;2.85;;;23.30;99.90;;;;;;5006130;28;20257;-70
2021/06/03 07:49:13;;;;;;;3.58;3.08;;;23.30;99.90;;;;;;5000703;28;20674;-67
2021/06/03 07:51:40;;;;;;;4.00;3.00;;;23.30;99.90;;;;;;5004801;28;20299;-68
2021/06/03 07:54:06;;;;;;;2.85;2.65;;;23.40;99.90;;;;;;5005330;28;21268;-69
2021/06/03 07:56:33;;;;;;;3.58;2.95;;;23.40;99.90;;;;;;5005607;28;20299;-67
2021/06/03 07:58:59;;;;;;;2.88;2.53;;;23.50;99.90;;;;;;5005014;28;20588;-68
2021/06/03 08:01:25;;;;;;;3.28;2.88;;;23.50;99.90;;;;;;4998194;28;20219;-69
2021/06/03 08:03:51;;;;;;;3.35;2.70;;;23.70;99.90;;;;;;5004278;28;20184;-68
2021/06/03 08:06:17;;;;;;;3.08;2.78;;;23.80;99.90;;;;;;5004975;28;20719;-68
2021/06/03 08:08:42;;;;;;;4.10;2.70;;;23.90;99.90;;;;;;5003090;28;20231;-70
2021/06/03 08:11:08;;;;;;;4.22;2.90;;;23.80;99.90;;;;;;5002339;28;20184;-69
2021/06/03 08:13:34;;;;;;;3.22;2.65;;;23.90;99.90;;;;;;5004552;28;20187;-67
2021/06/03 08:16:01;;;;;;;3.00;2.70;;;23.90;99.90;;;;;;5004568;28;20237;-67
2021/06/03 08:18:27;;;;;;;2.90;2.65;;;23.80;99.90;;;;;;5004374;28;20211;-70
2021/06/03 08:20:57;;;;;;;3.47;3.17;;;23.90;99.90;;;;;;5004112;28;20671;-68
2021/06/03 08:23:25;;;;;;;4.18;3.03;;;23.90;99.90;;;;;;5002102;28;20184;-67
2021/06/03 08:25:51;;;;;;;2.80;2.60;;;24.00;99.90;;;;;;5004244;28;20211;-69
2021/06/03 08:28:18;;;;;;;2.80;2.38;;;24.20;99.90;;;;;;5003128;28;20341;-69
2021/06/03 08:30:45;;;;;;;3.00;2.80;;;24.40;99.90;;;;;;5003372;28;20187;-70
2021/06/03 08:33:11;;;;;;;3.22;2.70;;;24.80;99.90;;;;;;5004299;28;20192;-68
2021/06/03 08:35:38;;;;;;;4.53;2.60;;;25.10;99.90;;;;;;5005094;28;20187;-68
2021/06/03 08:38:06;;;;;;;3.00;2.60;;;25.20;99.90;;;;;;5018945;28;20188;-69
2021/06/03 08:40:35;;;;;;;3.15;2.85;;;25.20;99.90;;;;;;5002145;28;20687;-69
2021/06/03 08:43:03;;;;;;;4.80;2.83;;;25.10;99.90;;;;;;5003562;28;20199;-69
2021/06/03 08:45:31;;;;;;;3.08;2.60;;;25.10;99.90;;;;;;5004988;28;20286;-69
2021/06/03 08:47:57;;;;;;;3.25;2.95;;;25.10;99.90;;;;;;5003047;28;20180;-69
2021/06/03 08:50:28;;;;;;;2.95;2.65;;;25.20;99.90;;;;;;5003891;28;20179;-68
2021/06/03 08:52:55;;;;;;;3.08;2.78;;;25.10;99.90;;;;;;5003149;28;20184;-69
2021/06/03 08:58:09;;;;;;;4.85;2.85;;;25.30;99.90;;;;;;5004107;28;20995;-67
2021/06/03 09:00:36;;;;;;;2.78;2.58;;;25.20;99.90;;;;;;5004425;28;20207;-70
2021/06/03 09:03:03;;;;;;;3.42;2.67;;;25.20;99.90;;;;;;5003411;28;20176;-70
2021/06/03 09:05:29;;;;;;;3.05;2.78;;;25.30;99.90;;;;;;5004872;28;20548;-67
2021/06/03 09:07:55;;;;;;;4.55;2.47;;;25.20;99.90;;;;;;5003828;28;20593;-69
2021/06/03 09:10:35;;;;;;;2.85;2.60;;;25.10;99.90;;;;;;5004562;28;20221;-68
2021/06/03 09:13:05;;;;;;;2.85;2.33;;;25.00;99.90;;;;;;5003185;28;20194;-68
2021/06/03 09:15:31;;;;;;;3.30;2.67;;;25.10;99.90;;;;;;5004529;28;20191;-70
2021/06/03 09:17:57;;;;;;;3.15;2.70;;;25.50;99.90;;;;;;5004064;28;20196;-67
2021/06/03 09:20:25;;;;;;;3.17;2.85;;;25.60;99.90;;;;;;5004360;28;20219;-68
2021/06/03 09:22:53;;;;;;;2.90;2.70;;;25.50;99.90;;;;;;5018261;28;20180;-69
2021/06/03 09:25:28;;;;;;;3.20;2.90;;;25.50;99.90;;;;;;5004363;28;20514;-68
2021/06/03 09:27:54;;;;;;;2.60;2.40;;;25.50;99.90;;;;;;5002953;28;20213;-69
2021/06/03 09:30:20;;;;;;;3.08;2.75;;;25.70;99.90;;;;;;5004095;28;20234;-69
2021/06/03 09:32:53;;;;;;;3.60;2.90;;;25.70;99.90;;;;;;5002709;28;20294;-70
2021/06/03 09:35:19;;;;;;;2.92;2.72;;;25.80;99.90;;;;;;5004286;28;20880;-68
2021/06/03 09:37:44;;;;;;;3.05;2.75;;;25.60;99.90;;;;;;5003561;28;20266;-69
2021/06/03 09:40:21;;;;;;;3.30;2.55;;;25.40;99.90;;;;;;5004269;28;20203;-68
2021/06/03 09:43:10;;;;;;;4.40;2.50;;;25.40;99.90;;;;;;5003018;28;20666;-69
2021/06/03 09:45:54;;;;;;;2.30;2.10;;;25.80;99.90;;;;;;5003896;28;20207;-68
2021/06/03 09:48:43;;;;;;;2.72;2.53;;;26.00;99.90;;;;;;5003438;28;20701;-68
2021/06/03 09:51:21;;;;;;;2.50;2.30;;;26.10;99.90;;;;;;5003137;28;20215;-70
2021/06/03 09:53:50;;;;;;;3.58;2.40;;;26.10;99.90;;;;;;5003892;28;20202;-70
2021/06/03 09:56:39;;;;;;;2.45;2.25;;;26.20;99.90;;;;;;5003810;28;20187;-68
2021/06/03 09:59:15;;;;;;;3.85;2.60;;;26.20;99.90;;;;;;5000666;28;20250;-69
2021/06/03 10:01:52;;;;;;;2.92;2.25;;;26.00;99.90;;;;;;5004483;28;20301;-67
2021/06/03 10:04:28;;;;;;;2.58;2.38;;;26.00;99.90;;;;;;5006798;28;20206;-69
2021/06/03 10:06:57;;;;;;;2.83;2.58;;;26.30;99.90;;;;;;5005397;28;20190;-68
2021/06/03 10:09:43;;;;;;;2.72;2.35;;;26.40;99.90;;;;;;5006693;28;20282;-70
2021/06/03 10:12:24;;;;;;;2.53;2.33;;;26.40;99.90;;;;;;4998926;28;20681;-68
2021/06/03 10:14:56;;;;;;;2.38;2.17;;;26.40;99.90;;;;;;5007095;28;20305;-68
2021/06/03 10:17:29;;;;;;;3.17;2.33;;;26.30;99.90;;;;;;5006615;28;20198;-68
2021/06/03 10:20:09;;;;;;;2.83;2.17;;;26.50;99.90;;;;;;5007049;28;20199;-67
2021/06/03 10:22:38;;;;;;;2.45;2.25;;;26.40;99.90;;;;;;5004494;28;20184;-68
2021/06/03 10:25:21;;;;;;;3.03;2.47;;;26.60;99.90;;;;;;5005459;28;20224;-69
2021/06/03 10:27:51;;;;;;;2.50;2.30;;;26.60;99.90;;;;;;5005558;28;20183;-68
2021/06/03 10:30:21;;;;;;;4.40;2.25;;;26.90;99.90;;;;;;5005419;28;20190;-67
2021/06/03 10:32:49;;;;;;;3.40;2.15;;;27.20;99.90;;;;;;5020583;28;20274;-68
2021/06/03 10:35:18;;;;;;;2.35;2.15;;;27.30;99.90;;;;;;5007185;28;20183;-68
2021/06/03 10:37:45;;;;;;;2.53;2.33;;;27.10;99.90;;;;;;5005569;28;20299;-69
2021/06/03 10:40:17;;;;;;;2.88;2.28;;;27.20;99.90;;;;;;5006237;28;20203;-69
2021/06/03 10:42:43;;;;;;;2.47;2.28;;;27.10;99.90;;;;;;5005331;28;20203;-68
2021/06/03 10:45:12;;;;;;;2.10;1.92;;;27.00;99.90;;;;;;5007504;28;20183;-67
2021/06/03 10:47:38;;;;;;;2.47;2.25;;;26.80;99.90;;;;;;5004975;28;20183;-68
2021/06/03 10:50:06;;;;;;;3.42;2.20;;;26.60;99.90;;;;;;5006281;28;20756;-68
2021/06/03 10:52:33;;;;;;;2.10;1.90;;;26.60;99.90;;;;;;5005192;28;20264;-68
2021/06/03 10:54:59;;;;;;;3.67;2.10;;;26.50;99.90;;;;;;5006046;28;20188;-67
2021/06/03 10:57:53;;;;;;;2.20;1.85;;;26.50;99.90;;;;;;5005580;28;20180;-68
2021/06/03 11:01:05;;;;;;;2.80;2.17;;;26.40;99.90;;;;;;5006127;28;20280;-68
2021/06/03 11:03:50;;;;;;;1.90;1.80;;;26.50;99.90;;;;;;4996554;28;20253;-68
2021/06/03 11:06:21;;;;;;;2.75;1.85;;;26.40;99.90;;;;;;5006689;28;20179;-68
2021/06/03 11:08:56;;;;;;;2.08;1.83;;;26.40;99.90;;;;;;5005843;28;20203;-67
2021/06/03 11:11:27;;;;;;;2.30;1.77;;;26.40;99.90;;;;;;5005349;28;20175;-68
2021/06/03 11:13:53;;;;;;;2.10;2.00;;;26.50;99.90;;;;;;5005696;28;20184;-67
2021/06/03 11:16:20;;;;;;;1.73;1.63;;;26.60;99.90;;;;;;5004631;28;20274;-69
2021/06/03 11:18:49;;;;;;;3.97;2.40;;;26.60;99.90;;;;;;5005857;28;20199;-67
2021/06/03 11:21:33;;;;;;;2.03;1.90;;;26.70;99.90;;;;;;5005981;28;20273;-68
2021/06/03 11:24:05;;;;;;;2.33;2.03;;;26.90;99.90;;;;;;5006373;28;20526;-68
2021/06/03 11:26:52;;;;;;;5.97;1.85;;;26.80;99.90;;;;;;5006090;28;20549;-68
2021/06/03 11:29:28;;;;;;;1.92;1.83;;;26.80;99.90;;;;;;5005367;28;20531;-66
2021/06/03 11:32:03;;;;;;;2.30;2.10;;;26.80;99.90;;;;;;5005057;28;20175;-68
2021/06/03 11:34:38;;;;;;;1.77;1.67;;;26.70;99.90;;;;;;5006087;28;20599;-69
2021/06/03 11:37:05;;;;;;;1.80;1.70;;;26.80;99.90;;;;;;5005630;28;20667;-68
2021/06/03 11:39:31;;;;;;;1.67;1.58;;;26.90;99.90;;;;;;5005405;28;20569;-66
2021/06/03 11:42:32;;;;;;;2.03;1.83;;;27.00;99.90;;;;;;5005220;28;20183;-69
2021/06/03 11:44:57;;;;;;;2.05;1.85;;;27.30;99.90;;;;;;5016004;28;20595;-68
2021/06/03 11:47:23;;;;;;;2.20;2.00;;;27.50;99.90;;;;;;5005094;28;20195;-68
2021/06/03 11:49:49;;;;;;;1.85;1.75;;;27.50;99.90;;;;;;5004405;28;20429;-68
2021/06/03 11:52:19;;;;;;;2.15;1.95;;;27.60;99.90;;;;;;5003289;28;20200;-68
2021/06/03 11:55:03;;;;;;;3.88;2.33;;;27.80;99.90;;;;;;5004033;28;20714;-67
2021/06/03 11:57:34;;;;;;;2.40;2.20;;;27.60;99.90;;;;;;5004051;28;20249;-67
2021/06/03 12:00:07;;;;;;;1.92;1.83;;;27.70;99.90;;;;;;5001104;28;20270;-65
2021/06/03 12:02:35;;;;;;;1.88;1.77;;;27.70;99.90;;;;;;5003032;28;20652;-67
2021/06/03 12:07:49;;;;;;;2.10;1.95;;;27.50;99.90;;;;;;5005148;28;20233;-67
2021/06/03 12:10:31;;;;;;;2.20;2.00;;;27.60;99.90;;;;;;5004994;28;20211;-68
2021/06/03 12:12:57;;;;;;;2.00;1.80;;;27.60;99.90;;;;;;5002985;28;20606;-68
2021/06/03 12:15:27;;;;;;;2.17;2.08;;;27.80;99.90;;;;;;5002547;28;20191;-68
2021/06/03 12:17:58;;;;;;;1.95;1.70;;;27.90;99.90;;;;;;5000927;28;20551;-68
2021/06/03 12:20:26;;;;;;;2.95;2.17;;;28.00;99.90;;;;;;5004917;28;20228;-68
2021/06/03 12:22:52;;;;;;;1.77;1.67;;;28.00;99.90;;;;;;5003859;28;20259;-66
2021/06/03 12:25:19;;;;;;;3.60;1.95;;;28.00;99.90;;;;;;5004167;28;20238;-66
2021/06/03 12:27:47;;;;;;;1.88;1.77;;;28.10;99.90;;;;;;5003614;28;20180;-66
2021/06/03 12:30:21;;;;;;;6.57;2.65;;;28.30;99.90;;;;;;5004600;28;20207;-67
2021/06/03 12:33:00;;;;;;;1.88;1.73;;;28.50;99.90;;;;;;5018819;28;20195;-68
2021/06/03 12:35:48;;;;;;;2.40;2.20;;;28.60;99.90;;;;;;5004921;28;20175;-68
2021/06/03 12:38:36;;;;;;;1.95;1.85;;;28.80;99.90;;;;;;5004215;28;20203;-67
2021/06/03 12:41:19;;;;;;;1.92;1.83;;;28.70;99.90;;;;;;5004717;28;20199;-68
2021/06/03 12:43:45;;;;;;;1.67;1.58;;;28.40;99.90;;;;;;5005236;28;20697;-68
2021/06/03 12:46:13;;;;;;;2.40;1.85;;;28.30;99.90;;;;;;5005799;28;20561;-67
2021/06/03 12:48:39;;;;;;;2.30;1.98;;;28.20;99.90;;;;;;5005214;28;20214;-67
2021/06/03 12:51:13;;;;;;;2.63;2.05;;;28.00;99.90;;;;;;5004364;28;20194;-66
2021/06/03 12:53:46;;;;;;;2.10;1.90;;;27.80;99.90;;;;;;5004773;28;20191;-68
2021/06/03 12:56:15;;;;;;;1.63;1.52;;;27.90;99.90;;;;;;5004749;28;20252;-68
2021/06/03 12:58:41;;;;;;;1.98;1.73;;;27.90;99.90;;;;;;5001164;28;20203;-67
2021/06/03 13:01:09;;;;;;;1.70;1.60;;;27.90;99.90;;;;;;5005683;28;20687;-68